Terminal Aerodrome Forecast
Issued by NWS Buffalo, NY

Home | Current Version | Previous Version | Text Only | Print | Product List | Glossary On
Versions: 1 2 3 4 5 6 7 8 9 10 11 12 13 14 15 16 17 18 19 20 21 22 23 24 25 26 27
193
FTUS41 KBUF 241741
TAFBUF
TAF
KBUF 241741Z 2418/2518 33007KT 2SM -SN OVC007
     FM242000 30006KT 5SM BR VCSH OVC007
     FM242300 26007KT P6SM OVC012
     FM251100 25008KT P6SM BKN130
     FM251500 24008KT P6SM BKN020=

USA.gov is the U.S. government's official web portal to all federal, state and local government web resources and services.